createdAt,value
2022-09-22T00:01:05.526Z,3.00
2022-09-22T00:03:36.920Z,3.35
2022-09-22T00:06:05.117Z,3.20
2022-09-22T00:08:33.465Z,3.20
2022-09-22T00:11:18.604Z,3.53
2022-09-22T00:13:51.190Z,3.53
2022-09-22T00:16:21.019Z,3.38
2022-09-22T00:18:47.659Z,3.53
2022-09-22T00:21:17.256Z,3.72
2022-09-22T00:23:44.188Z,3.90
2022-09-22T00:26:14.219Z,4.18
2022-09-22T00:28:41.685Z,4.05
2022-09-22T00:31:14.142Z,3.88
2022-09-22T00:33:41.436Z,4.03
2022-09-22T00:36:09.374Z,3.58
2022-09-22T00:38:38.299Z,3.60
2022-09-22T00:41:06.169Z,3.42
2022-09-22T00:43:37.651Z,4.15
2022-09-22T00:46:24.220Z,4.22
2022-09-22T00:49:05.404Z,3.50
2022-09-22T00:51:35.222Z,3.00
2022-09-22T00:54:06.003Z,3.78
2022-09-22T00:56:49.963Z,3.13
2022-09-22T00:59:19.251Z,3.08
2022-09-22T01:01:45.976Z,3.10
2022-09-22T01:04:12.842Z,3.28
2022-09-22T01:06:40.516Z,2.88
2022-09-22T01:09:08.579Z,3.47
2022-09-22T01:11:37.990Z,2.75
2022-09-22T01:14:13.398Z,4.45
2022-09-22T01:16:42.991Z,4.50
2022-09-22T01:19:51.622Z,3.13
2022-09-22T01:22:55.858Z,3.07
2022-09-22T01:25:25.273Z,2.80
2022-09-22T01:28:20.302Z,3.40
2022-09-22T01:31:00.363Z,2.92
2022-09-22T01:33:36.049Z,4.05
2022-09-22T01:36:21.168Z,3.00
2022-09-22T01:39:04.628Z,2.78
2022-09-22T01:41:45.007Z,3.22
2022-09-22T01:44:28.693Z,3.13
2022-09-22T01:47:15.216Z,3.30
2022-09-22T01:49:47.912Z,3.42
2022-09-22T01:52:23.442Z,3.13
2022-09-22T01:55:03.042Z,3.35
2022-09-22T02:00:10.697Z,2.95
2022-09-22T02:02:50.562Z,3.10
2022-09-22T02:05:46.625Z,3.10
2022-09-22T02:08:28.199Z,2.80
2022-09-22T02:10:58.842Z,3.15
2022-09-22T02:13:26.030Z,2.92
2022-09-22T02:16:01.711Z,3.08
2022-09-22T02:18:37.302Z,3.10
2022-09-22T02:21:04.898Z,3.47
2022-09-22T02:23:32.199Z,3.42
2022-09-22T02:26:01.931Z,3.10
2022-09-22T02:31:18.490Z,2.65
2022-09-22T02:33:43.301Z,3.00
2022-09-22T02:36:25.073Z,2.75
2022-09-22T02:39:05.733Z,3.22
2022-09-22T02:41:41.236Z,2.83
2022-09-22T02:44:17.816Z,2.60
2022-09-22T02:47:08.756Z,2.47
2022-09-22T02:49:35.929Z,2.58
2022-09-22T02:52:07.934Z,2.47
2022-09-22T02:54:34.495Z,2.70
2022-09-22T02:57:01.008Z,2.47
2022-09-22T02:59:27.557Z,2.47
2022-09-22T03:01:55.799Z,2.08
2022-09-22T03:04:22.704Z,3.20
2022-09-22T03:06:49.330Z,2.38
2022-09-22T03:09:17.621Z,2.90
2022-09-22T03:11:44.495Z,2.70
2022-09-22T03:14:11.117Z,3.10
2022-09-22T03:16:37.718Z,2.67
2022-09-22T03:19:04.656Z,2.63
2022-09-22T03:21:31.217Z,2.35
2022-09-22T03:23:57.767Z,2.50
2022-09-22T03:26:24.484Z,2.60
2022-09-22T03:28:51.057Z,3.05
2022-09-22T03:31:17.664Z,2.65
2022-09-22T03:33:44.236Z,2.85
2022-09-22T03:36:10.812Z,2.60
2022-09-22T03:38:37.360Z,2.67
2022-09-22T03:41:04.128Z,2.38
2022-09-22T03:43:30.822Z,2.13
2022-09-22T03:45:58.614Z,2.33
2022-09-22T03:48:27.036Z,2.75
2022-09-22T03:50:53.648Z,2.25
2022-09-22T03:53:20.216Z,2.50
2022-09-22T03:55:46.926Z,2.58
2022-09-22T03:58:13.586Z,2.40
2022-09-22T04:00:40.109Z,2.40
2022-09-22T04:03:06.942Z,2.35
2022-09-22T04:05:33.500Z,2.70
2022-09-22T04:08:00.156Z,2.45
2022-09-22T04:10:26.934Z,2.53
2022-09-22T04:12:53.527Z,2.78
2022-09-22T04:15:20.102Z,2.45
2022-09-22T04:17:47.072Z,2.33
2022-09-22T04:20:13.697Z,2.35
2022-09-22T04:22:40.352Z,2.78
2022-09-22T04:25:07.781Z,2.53
2022-09-22T04:27:34.281Z,2.55
2022-09-22T04:30:01.510Z,2.67
2022-09-22T04:32:28.024Z,2.50
2022-09-22T04:34:54.663Z,2.78
2022-09-22T04:37:21.181Z,2.60
2022-09-22T04:39:47.747Z,2.67
2022-09-22T04:42:14.268Z,3.08
2022-09-22T04:44:40.937Z,3.05
2022-09-22T04:47:07.443Z,2.92
2022-09-22T04:49:34.017Z,2.97
2022-09-22T04:52:00.733Z,3.03
2022-09-22T04:54:27.307Z,3.63
2022-09-22T04:56:53.812Z,2.83
2022-09-22T04:59:20.546Z,3.00
2022-09-22T05:01:47.160Z,2.83
2022-09-22T05:04:13.842Z,2.85
2022-09-22T05:06:41.685Z,2.65
2022-09-22T05:09:08.282Z,3.05
2022-09-22T05:11:34.870Z,3.00
2022-09-22T05:14:02.156Z,2.95
2022-09-22T05:16:28.719Z,2.58
2022-09-22T05:18:55.828Z,2.47
2022-09-22T05:21:22.324Z,2.90
2022-09-22T05:23:48.943Z,2.45
2022-09-22T05:26:15.529Z,3.50
2022-09-22T05:28:42.886Z,3.30
2022-09-22T05:31:09.422Z,2.90
2022-09-22T05:33:36.823Z,3.25
2022-09-22T05:36:03.593Z,3.25
2022-09-22T05:38:30.163Z,2.70
2022-09-22T05:40:56.736Z,2.90
2022-09-22T05:43:23.277Z,3.28
2022-09-22T05:45:50.035Z,4.20
2022-09-22T05:48:16.724Z,4.90
2022-09-22T05:50:43.946Z,4.82
2022-09-22T05:53:11.365Z,4.88
2022-09-22T05:55:39.658Z,4.60
2022-09-22T05:58:09.136Z,4.90
2022-09-22T06:00:35.763Z,4.15
2022-09-22T06:03:02.510Z,4.78
2022-09-22T06:05:29.180Z,4.90
2022-09-22T06:08:01.745Z,4.20
2022-09-22T06:10:28.745Z,4.05
2022-09-22T06:13:00.206Z,3.92
2022-09-22T06:15:28.551Z,4.15
2022-09-22T06:17:56.207Z,3.53
2022-09-22T06:20:22.820Z,4.07
2022-09-22T06:22:49.500Z,4.10
2022-09-22T06:25:17.066Z,4.22
2022-09-22T06:27:44.055Z,4.00
2022-09-22T06:30:11.744Z,4.82
2022-09-22T06:32:43.797Z,4.63
2022-09-22T06:35:11.400Z,3.92
2022-09-22T06:37:38.639Z,4.95
2022-09-22T06:40:08.254Z,4.82
2022-09-22T06:45:04.533Z,6.38
2022-09-22T06:47:32.899Z,6.22
2022-09-22T06:50:01.315Z,7.07
2022-09-22T06:52:28.963Z,6.20
2022-09-22T06:54:58.483Z,5.82
2022-09-22T06:57:30.400Z,6.03
2022-09-22T06:59:56.907Z,5.82
2022-09-22T07:02:29.466Z,6.28
2022-09-22T07:04:59.306Z,6.55
2022-09-22T07:07:28.753Z,6.25
2022-09-22T07:09:55.828Z,5.40
2022-09-22T07:12:22.455Z,5.40
2022-09-22T07:14:49.576Z,4.78
2022-09-22T07:17:20.252Z,4.57
2022-09-22T07:19:47.137Z,4.68
2022-09-22T07:22:19.129Z,4.57
2022-09-22T07:24:45.924Z,4.80
2022-09-22T07:27:20.367Z,5.65
2022-09-22T07:29:48.793Z,4.60
2022-09-22T07:32:15.618Z,5.55
2022-09-22T07:34:42.205Z,5.22
2022-09-22T07:37:11.289Z,5.15
2022-09-22T07:39:37.836Z,5.05
2022-09-22T07:42:04.613Z,5.47
2022-09-22T07:44:49.715Z,4.25
2022-09-22T07:47:36.257Z,4.75
2022-09-22T07:50:04.664Z,4.85
2022-09-22T07:52:31.287Z,4.97
2022-09-22T07:54:57.829Z,4.80
2022-09-22T07:57:24.395Z,4.90
2022-09-22T07:59:51.071Z,5.30
2022-09-22T08:02:17.631Z,5.13
2022-09-22T08:04:44.189Z,5.28
2022-09-22T08:07:10.748Z,5.03
2022-09-22T08:09:37.291Z,4.88
2022-09-22T08:12:04.063Z,5.55
2022-09-22T08:14:31.074Z,4.68
2022-09-22T08:16:57.616Z,5.43
2022-09-22T08:19:24.318Z,4.95
2022-09-22T08:21:52.887Z,4.82
2022-09-22T08:24:22.000Z,4.80
2022-09-22T08:26:53.013Z,4.65
2022-09-22T08:29:20.572Z,4.65
2022-09-22T08:31:47.660Z,4.60
2022-09-22T08:34:16.515Z,4.70
2022-09-22T08:36:47.005Z,4.25
2022-09-22T08:39:14.515Z,3.85
2022-09-22T08:42:07.984Z,4.22
2022-09-22T08:45:02.677Z,3.47
2022-09-22T08:47:55.705Z,2.72
2022-09-22T08:50:58.154Z,2.90
2022-09-22T08:53:26.866Z,3.13
2022-09-22T08:56:06.920Z,2.77
2022-09-22T08:58:50.390Z,2.90
2022-09-22T09:01:38.295Z,2.78
2022-09-22T09:04:13.850Z,3.00
2022-09-22T09:07:14.523Z,2.67
2022-09-22T09:10:06.078Z,2.85
2022-09-22T09:12:53.334Z,2.17
2022-09-22T09:15:39.247Z,1.88
2022-09-22T09:18:16.030Z,2.28
2022-09-22T09:20:47.945Z,3.00
2022-09-22T09:26:18.627Z,2.40
2022-09-22T09:28:53.857Z,1.90
2022-09-22T09:31:46.114Z,1.70
2022-09-22T09:34:18.014Z,2.25
2022-09-22T09:37:10.249Z,2.30
2022-09-22T09:39:39.531Z,2.10
2022-09-22T09:42:17.547Z,2.00
2022-09-22T09:44:45.194Z,2.00
2022-09-22T09:47:17.334Z,1.80
2022-09-22T09:49:44.069Z,1.90
2022-09-22T09:52:12.774Z,2.03
2022-09-22T09:54:41.439Z,1.87
2022-09-22T09:57:09.887Z,1.53
2022-09-22T09:59:57.010Z,2.13
2022-09-22T10:02:37.552Z,1.40
2022-09-22T10:05:04.529Z,1.80
2022-09-22T10:07:41.824Z,1.70
2022-09-22T10:10:37.745Z,1.75
2022-09-22T10:13:04.326Z,1.50
2022-09-22T10:15:36.484Z,1.58
2022-09-22T10:18:23.528Z,1.50
2022-09-22T10:21:23.678Z,1.40
2022-09-22T10:23:51.662Z,1.70
2022-09-22T10:26:27.106Z,1.60
2022-09-22T10:29:12.304Z,1.40
2022-09-22T10:32:02.781Z,1.70
2022-09-22T10:34:36.500Z,1.23
2022-09-22T10:37:10.991Z,1.92
2022-09-22T10:39:47.348Z,1.73
2022-09-22T10:42:25.798Z,1.80
2022-09-22T10:44:53.620Z,2.50
2022-09-22T10:47:40.636Z,1.95
2022-09-22T10:50:27.784Z,1.50
2022-09-22T10:53:12.837Z,1.80
2022-09-22T10:55:52.891Z,1.50
2022-09-22T10:58:27.391Z,1.85
2022-09-22T11:01:09.288Z,1.60
2022-09-22T11:03:56.637Z,1.42
2022-09-22T11:06:49.036Z,1.50
2022-09-22T11:09:34.294Z,0.95
2022-09-22T11:12:19.110Z,1.25
2022-09-22T11:14:51.943Z,1.08
2022-09-22T11:17:37.486Z,0.88
2022-09-22T11:20:23.084Z,1.20
2022-09-22T11:23:00.919Z,0.95
2022-09-22T11:25:55.417Z,1.20
2022-09-22T11:29:00.202Z,1.10
2022-09-22T11:31:26.957Z,1.17
2022-09-22T11:34:19.694Z,1.10
2022-09-22T11:37:27.380Z,1.10
2022-09-22T11:40:17.596Z,1.00
2022-09-22T11:43:04.735Z,1.60
2022-09-22T11:46:06.329Z,1.88
2022-09-22T11:49:02.169Z,1.40
2022-09-22T11:51:37.631Z,1.48
2022-09-22T11:54:30.117Z,1.30
2022-09-22T11:57:04.736Z,1.33
2022-09-22T11:59:59.437Z,1.40
2022-09-22T12:02:38.498Z,1.30
2022-09-22T12:05:13.209Z,1.55
2022-09-22T12:07:49.529Z,1.70
2022-09-22T12:10:30.207Z,1.30
2022-09-22T12:12:57.106Z,1.85
2022-09-22T12:15:29.447Z,1.17
2022-09-22T12:18:29.458Z,1.17
2022-09-22T12:21:06.593Z,0.95
2022-09-22T12:23:40.866Z,0.80
2022-09-22T12:26:13.330Z,0.85
2022-09-22T12:28:43.128Z,0.70
2022-09-22T12:31:16.038Z,1.50
2022-09-22T12:33:52.136Z,0.95
2022-09-22T12:36:36.716Z,1.33
2022-09-22T12:39:24.233Z,0.80
2022-09-22T12:41:57.868Z,0.85
2022-09-22T12:44:28.538Z,0.95
2022-09-22T12:47:01.835Z,0.80
2022-09-22T12:49:28.618Z,0.80
2022-09-22T12:51:55.180Z,1.00
2022-09-22T12:54:21.750Z,1.00
2022-09-22T12:57:20.412Z,0.80
2022-09-22T13:00:05.765Z,0.90
2022-09-22T13:02:41.155Z,0.85
2022-09-22T13:05:10.704Z,1.20
2022-09-22T13:07:42.906Z,1.15
2022-09-22T13:10:21.961Z,1.00
2022-09-22T13:13:03.646Z,0.75
2022-09-22T13:15:51.880Z,0.90
2022-09-22T13:18:39.892Z,0.80
2022-09-22T13:21:12.904Z,1.00
2022-09-22T13:23:51.753Z,0.82
2022-09-22T13:26:40.599Z,1.00
2022-09-22T13:29:19.144Z,0.93
2022-09-22T13:31:54.349Z,0.80
2022-09-22T13:34:35.874Z,0.60
2022-09-22T13:37:14.936Z,0.80
2022-09-22T13:39:47.412Z,0.68
2022-09-22T13:42:31.646Z,0.80
2022-09-22T13:45:07.784Z,0.82
2022-09-22T13:47:35.443Z,0.52
2022-09-22T13:50:09.335Z,0.73
2022-09-22T13:52:39.325Z,3.08
2022-09-22T13:55:26.153Z,1.00
2022-09-22T13:57:56.192Z,2.55
2022-09-22T14:01:01.498Z,4.28
2022-09-22T14:03:27.793Z,2.38
2022-09-22T14:05:55.804Z,1.10
2022-09-22T14:08:29.716Z,1.80
2022-09-22T14:10:58.346Z,2.53
2022-09-22T14:13:41.108Z,1.55
2022-09-22T14:16:28.164Z,0.57
2022-09-22T14:19:08.922Z,1.10
2022-09-22T14:22:06.889Z,0.70
2022-09-22T14:24:37.651Z,0.98
2022-09-22T14:27:07.707Z,0.70
2022-09-22T14:29:37.456Z,0.60
2022-09-22T14:32:11.873Z,0.63
2022-09-22T14:34:39.970Z,0.90
2022-09-22T14:37:20.532Z,1.83
2022-09-22T14:39:48.081Z,0.85
2022-09-22T14:42:27.614Z,0.60
2022-09-22T14:45:14.006Z,0.70
2022-09-22T14:47:40.848Z,1.15
2022-09-22T14:50:27.300Z,0.80
2022-09-22T14:52:54.088Z,0.60
2022-09-22T14:55:36.033Z,0.90
2022-09-22T14:58:07.653Z,0.60
2022-09-22T15:00:54.463Z,0.68
2022-09-22T15:03:29.640Z,0.60
2022-09-22T15:06:12.985Z,0.65
2022-09-22T15:08:42.184Z,0.60
2022-09-22T15:13:40.279Z,0.60
2022-09-22T15:16:40.397Z,0.70
2022-09-22T15:19:11.969Z,0.90
2022-09-22T15:21:47.767Z,1.15
2022-09-22T15:24:22.133Z,0.70
2022-09-22T15:26:49.008Z,0.73
2022-09-22T15:29:17.321Z,0.60
2022-09-22T15:31:43.971Z,0.70
2022-09-22T15:34:12.751Z,0.88
2022-09-22T15:36:45.830Z,0.50
2022-09-22T15:39:23.642Z,0.77
2022-09-22T15:41:51.811Z,0.57
2022-09-22T15:44:18.346Z,0.60
2022-09-22T15:46:51.357Z,0.80
2022-09-22T15:49:29.739Z,0.70
2022-09-22T15:52:11.149Z,0.77
2022-09-22T15:54:43.482Z,0.80
2022-09-22T15:57:11.561Z,0.70
2022-09-22T15:59:38.496Z,0.88
2022-09-22T16:02:10.764Z,0.80
2022-09-22T16:04:37.378Z,0.93
2022-09-22T16:07:08.341Z,0.90
2022-09-22T16:09:35.502Z,0.98
2022-09-22T16:12:03.138Z,1.00
2022-09-22T16:14:29.687Z,0.88
2022-09-22T16:16:56.366Z,0.88
2022-09-22T16:19:23.157Z,0.60
2022-09-22T16:21:52.052Z,0.60
2022-09-22T16:24:19.405Z,0.70
2022-09-22T16:26:45.939Z,0.90
2022-09-22T16:29:12.518Z,1.00
2022-09-22T16:31:39.346Z,0.68
2022-09-22T16:34:07.172Z,1.10
2022-09-22T16:36:36.136Z,1.00
2022-09-22T16:39:04.024Z,1.08
2022-09-22T16:41:32.937Z,1.38
2022-09-22T16:44:00.350Z,1.52
2022-09-22T16:46:33.491Z,1.17
2022-09-22T16:49:06.025Z,1.50
2022-09-22T16:51:38.157Z,1.13
2022-09-22T16:54:06.969Z,1.25
2022-09-22T16:56:35.654Z,1.40
2022-09-22T16:59:03.034Z,1.73
2022-09-22T17:01:32.241Z,1.35
2022-09-22T17:03:59.035Z,1.52
2022-09-22T17:06:26.453Z,1.50
2022-09-22T17:08:56.873Z,1.38
2022-09-22T17:11:29.787Z,1.52
2022-09-22T17:14:01.402Z,1.38
2022-09-22T17:16:34.292Z,1.45
2022-09-22T17:19:09.147Z,1.30
2022-09-22T17:21:37.637Z,1.05
2022-09-22T17:24:06.241Z,1.50
2022-09-22T17:26:38.701Z,1.73
2022-09-22T17:29:06.515Z,3.17
2022-09-22T17:31:35.862Z,3.88
2022-09-22T17:36:29.822Z,4.60
2022-09-22T17:38:58.734Z,7.00
2022-09-22T17:41:28.140Z,7.28
2022-09-22T17:44:01.325Z,8.82
2022-09-22T17:46:31.293Z,11.63
2022-09-22T17:49:17.811Z,10.60
2022-09-22T17:52:07.529Z,10.05
2022-09-22T17:55:00.705Z,10.20
2022-09-22T17:57:29.794Z,14.10
2022-09-22T17:59:57.467Z,15.75
2022-09-22T18:02:27.112Z,19.05
2022-09-22T18:04:54.087Z,18.67
2022-09-22T18:07:25.512Z,16.05
2022-09-22T18:09:55.381Z,17.05
2022-09-22T18:12:24.759Z,16.98
2022-09-22T18:14:53.414Z,15.63
2022-09-22T18:17:23.811Z,12.70
2022-09-22T18:19:54.127Z,10.98
2022-09-22T18:22:22.086Z,9.95
2022-09-22T18:24:50.214Z,8.02
2022-09-22T18:27:19.355Z,6.78
2022-09-22T18:29:53.223Z,5.95
2022-09-22T18:32:20.300Z,5.88
2022-09-22T18:34:47.539Z,6.40
2022-09-22T18:37:15.669Z,7.63
2022-09-22T18:39:45.259Z,7.78
2022-09-22T18:44:39.317Z,5.38
2022-09-22T18:47:06.256Z,4.35
2022-09-22T18:49:35.880Z,4.38
2022-09-22T18:52:05.163Z,4.72
2022-09-22T18:54:31.804Z,4.88
2022-09-22T18:56:58.589Z,5.40
2022-09-22T18:59:27.129Z,6.07
2022-09-22T19:01:54.031Z,6.43
2022-09-22T19:04:23.006Z,7.78
2022-09-22T19:07:10.850Z,7.13
2022-09-22T19:09:37.952Z,8.48
2022-09-22T19:12:07.960Z,8.20
2022-09-22T19:14:39.158Z,7.50
2022-09-22T19:17:07.450Z,7.45
2022-09-22T19:19:37.084Z,7.13
2022-09-22T19:22:09.218Z,6.88
2022-09-22T19:24:37.182Z,6.15
2022-09-22T19:27:04.988Z,7.15
2022-09-22T19:29:32.693Z,5.85
2022-09-22T19:32:00.825Z,5.20
2022-09-22T19:34:28.594Z,5.63
2022-09-22T19:36:55.930Z,5.22
2022-09-22T19:39:23.527Z,5.07
2022-09-22T19:41:51.857Z,5.07
2022-09-22T19:44:20.970Z,4.22
2022-09-22T19:46:48.480Z,4.85
2022-09-22T19:49:15.831Z,4.40
2022-09-22T19:51:42.688Z,4.43
2022-09-22T19:54:09.425Z,4.20
2022-09-22T19:56:36.434Z,3.90
2022-09-22T19:59:04.075Z,4.22
2022-09-22T20:01:33.863Z,4.13
2022-09-22T20:04:00.656Z,4.07
2022-09-22T20:06:28.010Z,4.00
2022-09-22T20:09:02.760Z,3.75
2022-09-22T20:11:40.752Z,4.18
2022-09-22T20:14:22.605Z,3.95
2022-09-22T20:17:01.914Z,3.50
2022-09-22T20:19:31.381Z,3.50
2022-09-22T20:22:16.867Z,3.13
2022-09-22T20:24:45.168Z,3.45
2022-09-22T20:27:11.813Z,3.33
2022-09-22T20:29:38.357Z,3.35
2022-09-22T20:32:05.145Z,3.20
2022-09-22T20:34:31.773Z,3.40
2022-09-22T20:36:58.518Z,3.20
2022-09-22T20:39:25.049Z,3.50
2022-09-22T20:41:52.841Z,3.72
2022-09-22T20:44:19.405Z,3.25
2022-09-22T20:46:47.806Z,3.75
2022-09-22T20:49:14.670Z,3.97
2022-09-22T20:51:42.337Z,3.53
2022-09-22T20:54:09.197Z,3.47
2022-09-22T20:56:39.408Z,3.88
2022-09-22T20:59:08.690Z,3.42
2022-09-22T21:01:35.717Z,4.10
2022-09-22T21:04:03.975Z,3.78
2022-09-22T21:06:31.048Z,3.67
2022-09-22T21:09:16.961Z,4.03
2022-09-22T21:11:44.202Z,4.07
2022-09-22T21:14:11.184Z,4.20
2022-09-22T21:16:39.829Z,4.00
2022-09-22T21:19:07.364Z,3.90
2022-09-22T21:21:38.322Z,5.13
2022-09-22T21:24:05.762Z,4.85
2022-09-22T21:26:33.065Z,4.90
2022-09-22T21:29:00.110Z,4.80
2022-09-22T21:31:27.269Z,4.85
2022-09-22T21:33:54.094Z,5.15
2022-09-22T21:36:24.677Z,4.78
2022-09-22T21:38:57.199Z,4.38
2022-09-22T21:41:27.558Z,5.50
2022-09-22T21:43:55.117Z,4.32
2022-09-22T21:46:28.691Z,4.65
2022-09-22T21:49:01.034Z,5.03
2022-09-22T21:51:36.342Z,4.32
2022-09-22T21:54:04.846Z,4.63
2022-09-22T21:56:33.653Z,4.55
2022-09-22T21:59:02.549Z,4.78
2022-09-22T22:01:35.874Z,4.18
2022-09-22T22:04:07.874Z,4.30
2022-09-22T22:06:40.831Z,4.00
2022-09-22T22:09:11.392Z,4.32
2022-09-22T22:11:54.674Z,3.70
2022-09-22T22:14:22.596Z,3.65
2022-09-22T22:16:51.620Z,3.97
2022-09-22T22:19:20.674Z,3.85
2022-09-22T22:21:50.367Z,3.65
2022-09-22T22:24:39.278Z,3.83
2022-09-22T22:27:09.703Z,3.85
2022-09-22T22:29:38.656Z,4.20
2022-09-22T22:32:06.973Z,4.10
2022-09-22T22:34:34.093Z,4.00
2022-09-22T22:37:01.077Z,4.00
2022-09-22T22:39:28.350Z,3.25
2022-09-22T22:41:55.249Z,3.58
2022-09-22T22:44:22.509Z,3.85
2022-09-22T22:46:49.120Z,3.45
2022-09-22T22:49:15.845Z,4.00
2022-09-22T22:51:43.411Z,4.00
2022-09-22T22:54:11.757Z,4.22
2022-09-22T22:56:43.227Z,3.92
2022-09-22T22:59:11.758Z,4.03
2022-09-22T23:01:40.258Z,3.75
2022-09-22T23:04:11.122Z,3.47
2022-09-22T23:06:40.290Z,3.67
2022-09-22T23:09:08.474Z,3.92
2022-09-22T23:11:37.667Z,3.80
2022-09-22T23:14:07.460Z,4.28
2022-09-22T23:16:37.690Z,4.40
2022-09-22T23:19:07.760Z,3.90
2022-09-22T23:21:35.351Z,4.97
2022-09-22T23:24:02.802Z,4.20
2022-09-22T23:26:29.768Z,4.10
2022-09-22T23:28:58.502Z,3.70
2022-09-22T23:31:25.942Z,4.05
2022-09-22T23:33:52.868Z,4.28
2022-09-22T23:36:24.537Z,4.15
2022-09-22T23:38:56.038Z,4.25
2022-09-22T23:41:22.806Z,3.95
2022-09-22T23:43:49.817Z,3.80
2022-09-22T23:46:16.690Z,3.60
2022-09-22T23:48:43.342Z,4.00
2022-09-22T23:51:10.347Z,3.90
2022-09-22T23:53:37.759Z,4.00
2022-09-22T23:56:06.250Z,3.92
2022-09-22T23:58:33.638Z,3.50
